Terminal Aerodrome Forecast
Issued by NWS Shreveport, LA

Home | Current Version | Previous Version | Text Only | Print | Product List | Glossary On
Versions: 1 2 3 4 5 6 7 8 9 10 11 12 13 14 15 16 17 18 19
000
FTUS44 KSHV 291140
TAFMLU
TAF
KMLU 291140Z 2912/3012 20003KT P6SM SKC
      TEMPO 2912/2914 4SM BR BKN011
     FM291400 20006KT P6SM BKN011
     FM291600 23005KT P6SM BKN025
     FM291900 14005KT P6SM VCTS BKN040CB
     FM300200 10004KT P6SM BKN100=

USA.gov is the U.S. government's official web portal to all federal, state and local government web resources and services.